sensor_id;sensor_type;location;lat;lon;timestamp;temperature;humidity
16814;DHT22;8524;57.650;11.926;2023-12-07T00:01:42;-0.90;99.90
16814;DHT22;8524;57.650;11.926;2023-12-07T00:04:08;-0.80;99.90
16814;DHT22;8524;57.650;11.926;2023-12-07T00:06:35;-0.80;99.90
16814;DHT22;8524;57.650;11.926;2023-12-07T00:09:03;-0.90;99.90
16814;DHT22;8524;57.650;11.926;2023-12-07T00:11:30;-0.90;99.90
16814;DHT22;8524;57.650;11.926;2023-12-07T00:13:57;-0.90;99.90
16814;DHT22;8524;57.650;11.926;2023-12-07T00:16:24;-1.00;99.90
16814;DHT22;8524;57.650;11.926;2023-12-07T00:18:51;-1.00;99.90
16814;DHT22;8524;57.650;11.926;2023-12-07T00:21:18;-1.00;99.90
16814;DHT22;8524;57.650;11.926;2023-12-07T00:23:45;-1.00;99.90
16814;DHT22;8524;57.650;11.926;2023-12-07T00:26:13;-1.00;99.90
16814;DHT22;8524;57.650;11.926;2023-12-07T00:28:40;-1.10;99.90
16814;DHT22;8524;57.650;11.926;2023-12-07T00:31:07;-1.10;99.90
16814;DHT22;8524;57.650;11.926;2023-12-07T00:33:34;-1.10;99.90
16814;DHT22;8524;57.650;11.926;2023-12-07T00:36:01;-1.10;99.90
16814;DHT22;8524;57.650;11.926;2023-12-07T00:38:28;-1.10;99.90
16814;DHT22;8524;57.650;11.926;2023-12-07T00:40:54;-1.10;99.90
16814;DHT22;8524;57.650;11.926;2023-12-07T00:43:23;-1.10;99.90
16814;DHT22;8524;57.650;11.926;2023-12-07T00:45:50;-1.10;99.90
16814;DHT22;8524;57.650;11.926;2023-12-07T00:48:17;-1.20;99.90
16814;DHT22;8524;57.650;11.926;2023-12-07T00:50:43;-1.10;99.90
16814;DHT22;8524;57.650;11.926;2023-12-07T00:53:10;-1.10;99.90
16814;DHT22;8524;57.650;11.926;2023-12-07T00:55:37;-1.20;99.90
16814;DHT22;8524;57.650;11.926;2023-12-07T00:58:05;-1.20;99.90
16814;DHT22;8524;57.650;11.926;2023-12-07T01:00:33;-1.20;99.90
16814;DHT22;8524;57.650;11.926;2023-12-07T01:03:00;-1.20;99.90
16814;DHT22;8524;57.650;11.926;2023-12-07T01:05:27;-1.20;99.90
16814;DHT22;8524;57.650;11.926;2023-12-07T01:07:54;-1.20;99.90
16814;DHT22;8524;57.650;11.926;2023-12-07T01:10:21;-1.20;99.90
16814;DHT22;8524;57.650;11.926;2023-12-07T01:12:48;-1.20;99.90
16814;DHT22;8524;57.650;11.926;2023-12-07T01:15:15;-1.20;99.90
16814;DHT22;8524;57.650;11.926;2023-12-07T01:17:43;-1.20;99.90
16814;DHT22;8524;57.650;11.926;2023-12-07T01:20:11;-1.20;99.90
16814;DHT22;8524;57.650;11.926;2023-12-07T01:22:39;-1.20;99.90
16814;DHT22;8524;57.650;11.926;2023-12-07T01:25:07;-1.30;99.90
16814;DHT22;8524;57.650;11.926;2023-12-07T01:27:34;-1.30;99.90
16814;DHT22;8524;57.650;11.926;2023-12-07T01:30:01;-1.30;99.90
16814;DHT22;8524;57.650;11.926;2023-12-07T01:32:29;-1.20;99.90
16814;DHT22;8524;57.650;11.926;2023-12-07T01:34:57;-1.30;99.90
16814;DHT22;8524;57.650;11.926;2023-12-07T01:37:24;-1.30;99.90
16814;DHT22;8524;57.650;11.926;2023-12-07T01:39:51;-1.20;99.90
16814;DHT22;8524;57.650;11.926;2023-12-07T01:42:17;-1.20;99.90
16814;DHT22;8524;57.650;11.926;2023-12-07T01:44:44;-1.20;99.90
16814;DHT22;8524;57.650;11.926;2023-12-07T01:47:11;-1.30;99.90
16814;DHT22;8524;57.650;11.926;2023-12-07T01:49:39;-1.20;99.90
16814;DHT22;8524;57.650;11.926;2023-12-07T01:52:08;-1.30;99.90
16814;DHT22;8524;57.650;11.926;2023-12-07T01:54:36;-1.30;99.90
16814;DHT22;8524;57.650;11.926;2023-12-07T01:57:03;-1.30;99.90
16814;DHT22;8524;57.650;11.926;2023-12-07T01:59:31;-1.30;99.90
16814;DHT22;8524;57.650;11.926;2023-12-07T02:01:58;-1.30;99.90
16814;DHT22;8524;57.650;11.926;2023-12-07T02:04:25;-1.30;99.90
16814;DHT22;8524;57.650;11.926;2023-12-07T02:06:53;-1.30;99.90
16814;DHT22;8524;57.650;11.926;2023-12-07T02:09:22;-1.40;99.90
16814;DHT22;8524;57.650;11.926;2023-12-07T02:11:48;-1.30;99.90
16814;DHT22;8524;57.650;11.926;2023-12-07T02:14:15;-1.40;99.90
16814;DHT22;8524;57.650;11.926;2023-12-07T02:16:46;-1.30;99.90
16814;DHT22;8524;57.650;11.926;2023-12-07T02:19:26;-1.40;99.90
16814;DHT22;8524;57.650;11.926;2023-12-07T02:22:00;-1.30;99.90
16814;DHT22;8524;57.650;11.926;2023-12-07T02:24:33;-1.30;99.90
16814;DHT22;8524;57.650;11.926;2023-12-07T02:27:02;-1.30;99.90
16814;DHT22;8524;57.650;11.926;2023-12-07T02:29:29;-1.30;99.90
16814;DHT22;8524;57.650;11.926;2023-12-07T02:31:56;-1.30;99.90
16814;DHT22;8524;57.650;11.926;2023-12-07T02:34:22;-1.30;99.90
16814;DHT22;8524;57.650;11.926;2023-12-07T02:36:51;-1.30;99.90
16814;DHT22;8524;57.650;11.926;2023-12-07T02:39:20;-1.30;99.90
16814;DHT22;8524;57.650;11.926;2023-12-07T02:41:49;-1.30;99.90
16814;DHT22;8524;57.650;11.926;2023-12-07T02:44:18;-1.40;99.90
16814;DHT22;8524;57.650;11.926;2023-12-07T02:46:45;-1.40;99.90
16814;DHT22;8524;57.650;11.926;2023-12-07T02:49:12;-1.40;99.90
16814;DHT22;8524;57.650;11.926;2023-12-07T02:51:38;-1.50;99.90
16814;DHT22;8524;57.650;11.926;2023-12-07T02:54:05;-1.40;99.90
16814;DHT22;8524;57.650;11.926;2023-12-07T02:56:32;-1.40;99.90
16814;DHT22;8524;57.650;11.926;2023-12-07T02:58:59;-1.40;99.90
16814;DHT22;8524;57.650;11.926;2023-12-07T03:01:27;-1.40;99.90
16814;DHT22;8524;57.650;11.926;2023-12-07T03:03:54;-1.40;99.90
16814;DHT22;8524;57.650;11.926;2023-12-07T03:06:21;-1.50;99.90
16814;DHT22;8524;57.650;11.926;2023-12-07T03:08:48;-1.50;99.90
16814;DHT22;8524;57.650;11.926;2023-12-07T03:11:15;-1.40;99.90
16814;DHT22;8524;57.650;11.926;2023-12-07T03:13:41;-1.40;99.90
16814;DHT22;8524;57.650;11.926;2023-12-07T03:16:09;-1.30;99.90
16814;DHT22;8524;57.650;11.926;2023-12-07T03:18:37;-1.40;99.90
16814;DHT22;8524;57.650;11.926;2023-12-07T03:21:04;-1.50;99.90
16814;DHT22;8524;57.650;11.926;2023-12-07T03:23:32;-1.50;99.90
16814;DHT22;8524;57.650;11.926;2023-12-07T03:25:57;-1.40;99.90
16814;DHT22;8524;57.650;11.926;2023-12-07T03:28:24;-1.50;99.90
16814;DHT22;8524;57.650;11.926;2023-12-07T03:30:51;-1.40;99.90
16814;DHT22;8524;57.650;11.926;2023-12-07T03:33:18;-1.40;99.90
16814;DHT22;8524;57.650;11.926;2023-12-07T03:35:46;-1.40;99.90
16814;DHT22;8524;57.650;11.926;2023-12-07T03:38:13;-1.50;99.90
16814;DHT22;8524;57.650;11.926;2023-12-07T03:40:40;-1.60;99.90
16814;DHT22;8524;57.650;11.926;2023-12-07T03:43:07;-1.50;99.90
16814;DHT22;8524;57.650;11.926;2023-12-07T03:45:34;-1.60;99.90
16814;DHT22;8524;57.650;11.926;2023-12-07T03:48:01;-1.60;99.90
16814;DHT22;8524;57.650;11.926;2023-12-07T03:50:27;-1.60;99.90
16814;DHT22;8524;57.650;11.926;2023-12-07T03:52:56;-1.50;99.90
16814;DHT22;8524;57.650;11.926;2023-12-07T03:55:22;-1.60;99.90
16814;DHT22;8524;57.650;11.926;2023-12-07T03:57:49;-1.60;99.90
16814;DHT22;8524;57.650;11.926;2023-12-07T04:00:16;-1.50;99.90
16814;DHT22;8524;57.650;11.926;2023-12-07T04:02:43;-1.50;99.90
16814;DHT22;8524;57.650;11.926;2023-12-07T04:05:10;-1.50;99.90
16814;DHT22;8524;57.650;11.926;2023-12-07T04:07:38;-1.60;99.90
16814;DHT22;8524;57.650;11.926;2023-12-07T04:10:07;-1.60;99.90
16814;DHT22;8524;57.650;11.926;2023-12-07T04:12:34;-1.60;99.90
16814;DHT22;8524;57.650;11.926;2023-12-07T04:15:00;-1.60;99.90
16814;DHT22;8524;57.650;11.926;2023-12-07T04:17:27;-1.60;99.90
16814;DHT22;8524;57.650;11.926;2023-12-07T04:19:55;-1.60;99.90
16814;DHT22;8524;57.650;11.926;2023-12-07T04:22:21;-1.60;99.90
16814;DHT22;8524;57.650;11.926;2023-12-07T04:24:48;-1.60;99.90
16814;DHT22;8524;57.650;11.926;2023-12-07T04:27:16;-1.60;99.90
16814;DHT22;8524;57.650;11.926;2023-12-07T04:29:43;-1.60;99.90
16814;DHT22;8524;57.650;11.926;2023-12-07T04:32:10;-1.60;99.90
16814;DHT22;8524;57.650;11.926;2023-12-07T04:34:37;-1.60;99.90
16814;DHT22;8524;57.650;11.926;2023-12-07T04:37:04;-1.60;99.90
16814;DHT22;8524;57.650;11.926;2023-12-07T04:39:31;-1.70;99.90
16814;DHT22;8524;57.650;11.926;2023-12-07T04:41:58;-1.70;99.90
16814;DHT22;8524;57.650;11.926;2023-12-07T04:44:26;-1.60;99.90
16814;DHT22;8524;57.650;11.926;2023-12-07T04:46:54;-1.60;99.90
16814;DHT22;8524;57.650;11.926;2023-12-07T04:49:20;-1.70;99.90
16814;DHT22;8524;57.650;11.926;2023-12-07T04:51:47;-1.70;99.90
16814;DHT22;8524;57.650;11.926;2023-12-07T04:54:14;-1.70;99.90
16814;DHT22;8524;57.650;11.926;2023-12-07T04:56:41;-1.70;99.90
16814;DHT22;8524;57.650;11.926;2023-12-07T04:59:09;-1.70;99.90
16814;DHT22;8524;57.650;11.926;2023-12-07T05:01:37;-1.50;99.90
16814;DHT22;8524;57.650;11.926;2023-12-07T05:04:04;-1.60;99.90
16814;DHT22;8524;57.650;11.926;2023-12-07T05:06:31;-1.70;99.90
16814;DHT22;8524;57.650;11.926;2023-12-07T05:08:59;-1.70;99.90
16814;DHT22;8524;57.650;11.926;2023-12-07T05:11:26;-1.70;99.90
16814;DHT22;8524;57.650;11.926;2023-12-07T05:13:53;-1.60;99.90
16814;DHT22;8524;57.650;11.926;2023-12-07T05:16:20;-1.60;99.90
16814;DHT22;8524;57.650;11.926;2023-12-07T05:18:48;-1.60;99.90
16814;DHT22;8524;57.650;11.926;2023-12-07T05:21:15;-1.60;99.90
16814;DHT22;8524;57.650;11.926;2023-12-07T05:23:41;-1.50;99.90
16814;DHT22;8524;57.650;11.926;2023-12-07T05:26:08;-1.60;99.90
16814;DHT22;8524;57.650;11.926;2023-12-07T05:28:36;-1.60;99.90
16814;DHT22;8524;57.650;11.926;2023-12-07T05:31:03;-1.70;99.90
16814;DHT22;8524;57.650;11.926;2023-12-07T05:33:30;-1.60;99.90
16814;DHT22;8524;57.650;11.926;2023-12-07T05:35:59;-1.50;99.90
16814;DHT22;8524;57.650;11.926;2023-12-07T05:38:26;-1.50;99.90
16814;DHT22;8524;57.650;11.926;2023-12-07T05:40:52;-1.60;99.90
16814;DHT22;8524;57.650;11.926;2023-12-07T05:43:19;-1.50;99.90
16814;DHT22;8524;57.650;11.926;2023-12-07T05:45:46;-1.60;99.90
16814;DHT22;8524;57.650;11.926;2023-12-07T05:48:13;-1.60;99.90
16814;DHT22;8524;57.650;11.926;2023-12-07T05:50:40;-1.60;99.90
16814;DHT22;8524;57.650;11.926;2023-12-07T05:53:08;-1.60;99.90
16814;DHT22;8524;57.650;11.926;2023-12-07T05:55:36;-1.60;99.90
16814;DHT22;8524;57.650;11.926;2023-12-07T05:58:03;-1.60;99.90
16814;DHT22;8524;57.650;11.926;2023-12-07T06:00:30;-1.60;99.90
16814;DHT22;8524;57.650;11.926;2023-12-07T06:02:57;-1.50;99.90
16814;DHT22;8524;57.650;11.926;2023-12-07T06:05:25;-1.60;99.90
16814;DHT22;8524;57.650;11.926;2023-12-07T06:07:51;-1.60;99.90
16814;DHT22;8524;57.650;11.926;2023-12-07T06:10:21;-1.60;99.90
16814;DHT22;8524;57.650;11.926;2023-12-07T06:12:48;-1.50;99.90
16814;DHT22;8524;57.650;11.926;2023-12-07T06:15:15;-1.50;99.90
16814;DHT22;8524;57.650;11.926;2023-12-07T06:17:42;-1.50;99.90
16814;DHT22;8524;57.650;11.926;2023-12-07T06:20:10;-1.60;99.90
16814;DHT22;8524;57.650;11.926;2023-12-07T06:22:37;-1.60;99.90
16814;DHT22;8524;57.650;11.926;2023-12-07T06:25:05;-1.60;99.90
16814;DHT22;8524;57.650;11.926;2023-12-07T06:27:35;-1.50;99.90
16814;DHT22;8524;57.650;11.926;2023-12-07T06:30:02;-1.60;99.90
16814;DHT22;8524;57.650;11.926;2023-12-07T06:32:31;-1.60;99.90
16814;DHT22;8524;57.650;11.926;2023-12-07T06:34:58;-1.50;99.90
16814;DHT22;8524;57.650;11.926;2023-12-07T06:37:25;-1.50;99.90
16814;DHT22;8524;57.650;11.926;2023-12-07T06:39:51;-1.50;99.90
16814;DHT22;8524;57.650;11.926;2023-12-07T06:42:18;-1.60;99.90
16814;DHT22;8524;57.650;11.926;2023-12-07T06:44:48;-1.50;99.90
16814;DHT22;8524;57.650;11.926;2023-12-07T06:47:15;-1.50;99.90
16814;DHT22;8524;57.650;11.926;2023-12-07T06:49:42;-1.50;99.90
16814;DHT22;8524;57.650;11.926;2023-12-07T06:52:09;-1.40;99.90
16814;DHT22;8524;57.650;11.926;2023-12-07T06:54:36;-1.40;99.90
16814;DHT22;8524;57.650;11.926;2023-12-07T06:57:04;-1.40;99.90
16814;DHT22;8524;57.650;11.926;2023-12-07T06:59:32;-1.40;99.90
16814;DHT22;8524;57.650;11.926;2023-12-07T07:02:01;-1.50;99.90
16814;DHT22;8524;57.650;11.926;2023-12-07T07:04:28;-1.40;99.90
16814;DHT22;8524;57.650;11.926;2023-12-07T07:06:55;-1.50;99.90
16814;DHT22;8524;57.650;11.926;2023-12-07T07:09:22;-1.40;99.90
16814;DHT22;8524;57.650;11.926;2023-12-07T07:11:49;-1.40;99.90
16814;DHT22;8524;57.650;11.926;2023-12-07T07:14:16;-1.40;99.90
16814;DHT22;8524;57.650;11.926;2023-12-07T07:16:43;-1.40;99.90
16814;DHT22;8524;57.650;11.926;2023-12-07T07:19:11;-1.40;99.90
16814;DHT22;8524;57.650;11.926;2023-12-07T07:21:38;-1.40;99.90
16814;DHT22;8524;57.650;11.926;2023-12-07T07:24:06;-1.40;99.90
16814;DHT22;8524;57.650;11.926;2023-12-07T07:26:33;-1.40;99.90
16814;DHT22;8524;57.650;11.926;2023-12-07T07:29:00;-1.40;99.90
16814;DHT22;8524;57.650;11.926;2023-12-07T07:31:28;-1.40;99.90
16814;DHT22;8524;57.650;11.926;2023-12-07T07:33:55;-1.40;99.90
16814;DHT22;8524;57.650;11.926;2023-12-07T07:36:23;-1.50;99.90
16814;DHT22;8524;57.650;11.926;2023-12-07T07:38:50;-1.50;99.90
16814;DHT22;8524;57.650;11.926;2023-12-07T07:41:17;-1.50;99.90
16814;DHT22;8524;57.650;11.926;2023-12-07T07:43:44;-1.40;99.90
16814;DHT22;8524;57.650;11.926;2023-12-07T07:46:11;-1.40;99.90
16814;DHT22;8524;57.650;11.926;2023-12-07T07:48:38;-1.40;99.90
16814;DHT22;8524;57.650;11.926;2023-12-07T07:51:05;-1.40;99.90
16814;DHT22;8524;57.650;11.926;2023-12-07T07:53:33;-1.40;99.90
16814;DHT22;8524;57.650;11.926;2023-12-07T07:56:00;-1.40;99.90
16814;DHT22;8524;57.650;11.926;2023-12-07T07:58:27;-1.40;99.90
16814;DHT22;8524;57.650;11.926;2023-12-07T08:00:54;-1.40;99.90
16814;DHT22;8524;57.650;11.926;2023-12-07T08:03:20;-1.40;99.90
16814;DHT22;8524;57.650;11.926;2023-12-07T08:05:47;-1.40;99.90
16814;DHT22;8524;57.650;11.926;2023-12-07T08:08:14;-1.30;99.90
16814;DHT22;8524;57.650;11.926;2023-12-07T08:10:42;-1.30;99.90
16814;DHT22;8524;57.650;11.926;2023-12-07T08:13:09;-1.30;99.90
16814;DHT22;8524;57.650;11.926;2023-12-07T08:15:36;-1.30;99.90
16814;DHT22;8524;57.650;11.926;2023-12-07T08:18:03;-1.30;99.90
16814;DHT22;8524;57.650;11.926;2023-12-07T08:20:31;-1.30;99.90
16814;DHT22;8524;57.650;11.926;2023-12-07T08:22:58;-1.30;99.90
16814;DHT22;8524;57.650;11.926;2023-12-07T08:25:25;-1.30;99.90
16814;DHT22;8524;57.650;11.926;2023-12-07T08:27:53;-1.30;99.90
16814;DHT22;8524;57.650;11.926;2023-12-07T08:30:20;-1.20;99.90
16814;DHT22;8524;57.650;11.926;2023-12-07T08:32:47;-1.20;99.90
16814;DHT22;8524;57.650;11.926;2023-12-07T08:35:14;-1.20;99.90
16814;DHT22;8524;57.650;11.926;2023-12-07T08:37:41;-1.10;99.90
16814;DHT22;8524;57.650;11.926;2023-12-07T08:40:08;-1.10;99.90
16814;DHT22;8524;57.650;11.926;2023-12-07T08:42:37;-1.10;99.90
16814;DHT22;8524;57.650;11.926;2023-12-07T08:45:06;-1.10;99.90
16814;DHT22;8524;57.650;11.926;2023-12-07T08:47:33;-1.10;99.90
16814;DHT22;8524;57.650;11.926;2023-12-07T08:50:00;-1.00;99.90
16814;DHT22;8524;57.650;11.926;2023-12-07T08:52:27;-0.90;99.90
16814;DHT22;8524;57.650;11.926;2023-12-07T08:54:54;-0.90;99.90
16814;DHT22;8524;57.650;11.926;2023-12-07T08:57:21;-0.90;99.90
16814;DHT22;8524;57.650;11.926;2023-12-07T08:59:48;-0.90;99.90
16814;DHT22;8524;57.650;11.926;2023-12-07T09:02:16;-0.70;99.90
16814;DHT22;8524;57.650;11.926;2023-12-07T09:04:44;-0.70;99.90
16814;DHT22;8524;57.650;11.926;2023-12-07T09:07:11;-0.60;99.90
16814;DHT22;8524;57.650;11.926;2023-12-07T09:09:41;-0.60;99.90
16814;DHT22;8524;57.650;11.926;2023-12-07T09:12:12;-0.60;99.90
16814;DHT22;8524;57.650;11.926;2023-12-07T09:14:39;-0.60;99.90
16814;DHT22;8524;57.650;11.926;2023-12-07T09:17:06;-0.50;99.90
16814;DHT22;8524;57.650;11.926;2023-12-07T09:19:34;-0.50;99.90
16814;DHT22;8524;57.650;11.926;2023-12-07T09:22:01;-0.50;99.90
16814;DHT22;8524;57.650;11.926;2023-12-07T09:24:28;-0.60;99.90
16814;DHT22;8524;57.650;11.926;2023-12-07T09:26:55;-0.50;99.90
16814;DHT22;8524;57.650;11.926;2023-12-07T09:29:22;-0.40;99.90
16814;DHT22;8524;57.650;11.926;2023-12-07T09:31:48;-0.30;99.90
16814;DHT22;8524;57.650;11.926;2023-12-07T09:34:15;-0.20;99.90
16814;DHT22;8524;57.650;11.926;2023-12-07T09:36:45;-0.40;99.90
16814;DHT22;8524;57.650;11.926;2023-12-07T09:39:12;-0.30;99.90
16814;DHT22;8524;57.650;11.926;2023-12-07T09:41:40;-0.20;99.90
16814;DHT22;8524;57.650;11.926;2023-12-07T09:44:08;-0.20;99.90
16814;DHT22;8524;57.650;11.926;2023-12-07T09:46:37;-0.20;99.90
16814;DHT22;8524;57.650;11.926;2023-12-07T09:49:05;-0.30;99.90
16814;DHT22;8524;57.650;11.926;2023-12-07T09:51:32;-0.20;99.90
16814;DHT22;8524;57.650;11.926;2023-12-07T09:54:02;-0.10;99.90
16814;DHT22;8524;57.650;11.926;2023-12-07T09:56:30;-0.20;99.90
16814;DHT22;8524;57.650;11.926;2023-12-07T09:58:57;-0.10;99.90
16814;DHT22;8524;57.650;11.926;2023-12-07T10:01:28;0.00;99.90
16814;DHT22;8524;57.650;11.926;2023-12-07T10:04:17;0.00;99.90
16814;DHT22;8524;57.650;11.926;2023-12-07T10:06:45;0.00;99.90
16814;DHT22;8524;57.650;11.926;2023-12-07T10:09:14;0.10;99.90
16814;DHT22;8524;57.650;11.926;2023-12-07T10:11:41;0.10;99.90
16814;DHT22;8524;57.650;11.926;2023-12-07T10:14:08;0.10;99.90
16814;DHT22;8524;57.650;11.926;2023-12-07T10:16:36;0.30;99.90
16814;DHT22;8524;57.650;11.926;2023-12-07T10:19:13;0.30;99.90
16814;DHT22;8524;57.650;11.926;2023-12-07T10:21:40;0.60;99.90
16814;DHT22;8524;57.650;11.926;2023-12-07T10:24:09;0.80;99.90
16814;DHT22;8524;57.650;11.926;2023-12-07T10:26:38;0.90;99.90
16814;DHT22;8524;57.650;11.926;2023-12-07T10:29:05;1.00;99.90
16814;DHT22;8524;57.650;11.926;2023-12-07T10:31:32;1.00;99.90
16814;DHT22;8524;57.650;11.926;2023-12-07T10:34:00;1.00;99.90
16814;DHT22;8524;57.650;11.926;2023-12-07T10:36:27;1.00;99.90
16814;DHT22;8524;57.650;11.926;2023-12-07T10:38:54;1.10;99.90
16814;DHT22;8524;57.650;11.926;2023-12-07T10:41:23;1.20;99.90
16814;DHT22;8524;57.650;11.926;2023-12-07T10:43:54;1.20;99.90
16814;DHT22;8524;57.650;11.926;2023-12-07T10:46:24;1.30;99.90
16814;DHT22;8524;57.650;11.926;2023-12-07T10:48:56;1.10;99.90
16814;DHT22;8524;57.650;11.926;2023-12-07T10:51:29;1.10;99.90
16814;DHT22;8524;57.650;11.926;2023-12-07T10:53:57;1.10;99.90
16814;DHT22;8524;57.650;11.926;2023-12-07T10:56:29;1.30;99.90
16814;DHT22;8524;57.650;11.926;2023-12-07T10:59:01;1.50;99.90
16814;DHT22;8524;57.650;11.926;2023-12-07T11:01:28;1.50;99.90
16814;DHT22;8524;57.650;11.926;2023-12-07T11:03:56;1.40;99.90
16814;DHT22;8524;57.650;11.926;2023-12-07T11:06:24;1.40;99.90
16814;DHT22;8524;57.650;11.926;2023-12-07T11:08:56;1.50;99.90
16814;DHT22;8524;57.650;11.926;2023-12-07T11:11:28;1.60;99.90
16814;DHT22;8524;57.650;11.926;2023-12-07T11:14:01;1.60;99.90
16814;DHT22;8524;57.650;11.926;2023-12-07T11:16:29;1.50;99.90
16814;DHT22;8524;57.650;11.926;2023-12-07T11:18:57;1.50;99.90
16814;DHT22;8524;57.650;11.926;2023-12-07T11:21:24;1.50;99.90
16814;DHT22;8524;57.650;11.926;2023-12-07T11:23:52;1.40;99.90
16814;DHT22;8524;57.650;11.926;2023-12-07T11:26:19;1.50;99.90
16814;DHT22;8524;57.650;11.926;2023-12-07T11:28:47;1.60;99.90
16814;DHT22;8524;57.650;11.926;2023-12-07T11:31:16;1.60;99.90
16814;DHT22;8524;57.650;11.926;2023-12-07T11:33:43;1.40;99.90
16814;DHT22;8524;57.650;11.926;2023-12-07T11:36:11;1.30;99.90
16814;DHT22;8524;57.650;11.926;2023-12-07T11:39:17;1.30;99.90
16814;DHT22;8524;57.650;11.926;2023-12-07T11:41:53;1.00;99.90
16814;DHT22;8524;57.650;11.926;2023-12-07T11:44:24;0.90;99.90
16814;DHT22;8524;57.650;11.926;2023-12-07T11:46:52;0.80;99.90
16814;DHT22;8524;57.650;11.926;2023-12-07T11:49:21;0.70;99.90
16814;DHT22;8524;57.650;11.926;2023-12-07T11:51:48;0.70;99.90
16814;DHT22;8524;57.650;11.926;2023-12-07T11:54:15;0.60;99.90
16814;DHT22;8524;57.650;11.926;2023-12-07T11:56:43;0.70;99.90
16814;DHT22;8524;57.650;11.926;2023-12-07T11:59:10;0.60;99.90
16814;DHT22;8524;57.650;11.926;2023-12-07T12:01:37;0.60;99.90
16814;DHT22;8524;57.650;11.926;2023-12-07T12:04:07;0.60;99.90
16814;DHT22;8524;57.650;11.926;2023-12-07T12:06:35;0.50;99.90
16814;DHT22;8524;57.650;11.926;2023-12-07T12:09:02;0.50;99.90
16814;DHT22;8524;57.650;11.926;2023-12-07T12:11:29;0.40;99.90
16814;DHT22;8524;57.650;11.926;2023-12-07T12:13:55;0.50;99.90
16814;DHT22;8524;57.650;11.926;2023-12-07T12:16:23;0.50;99.90
16814;DHT22;8524;57.650;11.926;2023-12-07T12:18:50;0.50;99.90
16814;DHT22;8524;57.650;11.926;2023-12-07T12:21:18;0.40;99.90
16814;DHT22;8524;57.650;11.926;2023-12-07T12:23:47;0.50;99.90
16814;DHT22;8524;57.650;11.926;2023-12-07T12:26:14;0.50;99.90
16814;DHT22;8524;57.650;11.926;2023-12-07T12:28:43;0.50;99.90
16814;DHT22;8524;57.650;11.926;2023-12-07T12:31:11;0.60;99.90
16814;DHT22;8524;57.650;11.926;2023-12-07T12:33:38;0.60;99.90
16814;DHT22;8524;57.650;11.926;2023-12-07T12:36:07;0.60;99.90
16814;DHT22;8524;57.650;11.926;2023-12-07T12:38:37;0.50;99.90
16814;DHT22;8524;57.650;11.926;2023-12-07T12:41:05;0.60;99.90
16814;DHT22;8524;57.650;11.926;2023-12-07T12:43:31;0.50;99.90
16814;DHT22;8524;57.650;11.926;2023-12-07T12:45:59;0.60;99.90
16814;DHT22;8524;57.650;11.926;2023-12-07T12:48:26;0.50;99.90
16814;DHT22;8524;57.650;11.926;2023-12-07T12:50:53;0.50;99.90
16814;DHT22;8524;57.650;11.926;2023-12-07T12:53:20;0.50;99.90
16814;DHT22;8524;57.650;11.926;2023-12-07T12:55:49;0.50;99.90
16814;DHT22;8524;57.650;11.926;2023-12-07T12:58:16;0.50;99.90
16814;DHT22;8524;57.650;11.926;2023-12-07T13:00:43;0.50;99.90
16814;DHT22;8524;57.650;11.926;2023-12-07T13:03:10;0.50;99.90
16814;DHT22;8524;57.650;11.926;2023-12-07T13:05:38;0.50;99.90
16814;DHT22;8524;57.650;11.926;2023-12-07T13:08:05;0.60;99.90
16814;DHT22;8524;57.650;11.926;2023-12-07T13:10:33;0.60;99.90
16814;DHT22;8524;57.650;11.926;2023-12-07T13:13:02;0.60;99.90
16814;DHT22;8524;57.650;11.926;2023-12-07T13:15:29;0.50;99.90
16814;DHT22;8524;57.650;11.926;2023-12-07T13:17:56;0.60;99.90
16814;DHT22;8524;57.650;11.926;2023-12-07T13:20:23;0.50;99.90
16814;DHT22;8524;57.650;11.926;2023-12-07T13:22:50;0.50;99.90
16814;DHT22;8524;57.650;11.926;2023-12-07T13:25:17;0.50;99.90
16814;DHT22;8524;57.650;11.926;2023-12-07T13:27:44;0.50;99.90
16814;DHT22;8524;57.650;11.926;2023-12-07T13:30:12;0.60;99.90
16814;DHT22;8524;57.650;11.926;2023-12-07T13:32:39;0.60;99.90
16814;DHT22;8524;57.650;11.926;2023-12-07T13:35:07;0.60;99.90
16814;DHT22;8524;57.650;11.926;2023-12-07T13:37:34;0.60;99.90
16814;DHT22;8524;57.650;11.926;2023-12-07T13:40:02;0.60;99.90
16814;DHT22;8524;57.650;11.926;2023-12-07T13:42:30;0.60;99.90
16814;DHT22;8524;57.650;11.926;2023-12-07T13:44:58;0.50;99.90
16814;DHT22;8524;57.650;11.926;2023-12-07T13:47:27;0.60;99.90
16814;DHT22;8524;57.650;11.926;2023-12-07T13:49:57;0.50;99.90
16814;DHT22;8524;57.650;11.926;2023-12-07T13:52:24;0.50;99.90
16814;DHT22;8524;57.650;11.926;2023-12-07T13:54:51;0.40;99.90
16814;DHT22;8524;57.650;11.926;2023-12-07T13:57:18;0.40;99.90
16814;DHT22;8524;57.650;11.926;2023-12-07T13:59:45;0.40;99.90
16814;DHT22;8524;57.650;11.926;2023-12-07T14:02:12;0.40;99.90
16814;DHT22;8524;57.650;11.926;2023-12-07T14:04:42;0.30;99.90
16814;DHT22;8524;57.650;11.926;2023-12-07T14:07:10;0.30;99.90
16814;DHT22;8524;57.650;11.926;2023-12-07T14:09:37;0.20;99.90
16814;DHT22;8524;57.650;11.926;2023-12-07T14:12:04;0.20;99.90
16814;DHT22;8524;57.650;11.926;2023-12-07T14:14:31;0.20;99.90
16814;DHT22;8524;57.650;11.926;2023-12-07T14:16:58;0.10;99.90
16814;DHT22;8524;57.650;11.926;2023-12-07T14:19:25;0.10;99.90
16814;DHT22;8524;57.650;11.926;2023-12-07T14:21:55;0.00;99.90
16814;DHT22;8524;57.650;11.926;2023-12-07T14:24:25;0.00;99.90
16814;DHT22;8524;57.650;11.926;2023-12-07T14:26:53;0.00;99.90
16814;DHT22;8524;57.650;11.926;2023-12-07T14:29:20;-0.10;99.90
16814;DHT22;8524;57.650;11.926;2023-12-07T14:31:48;-0.10;99.90
16814;DHT22;8524;57.650;11.926;2023-12-07T14:34:15;-0.20;99.90
16814;DHT22;8524;57.650;11.926;2023-12-07T14:36:43;-0.10;99.90
16814;DHT22;8524;57.650;11.926;2023-12-07T14:39:12;-0.20;99.90
16814;DHT22;8524;57.650;11.926;2023-12-07T14:41:43;-0.20;99.90
16814;DHT22;8524;57.650;11.926;2023-12-07T14:44:10;-0.20;99.90
16814;DHT22;8524;57.650;11.926;2023-12-07T14:46:37;-0.20;99.90
16814;DHT22;8524;57.650;11.926;2023-12-07T14:49:04;-0.20;99.90
16814;DHT22;8524;57.650;11.926;2023-12-07T14:51:31;-0.30;99.90
16814;DHT22;8524;57.650;11.926;2023-12-07T14:53:58;-0.30;99.90
16814;DHT22;8524;57.650;11.926;2023-12-07T14:56:26;-0.30;99.90
16814;DHT22;8524;57.650;11.926;2023-12-07T14:58:53;-0.40;99.90
16814;DHT22;8524;57.650;11.926;2023-12-07T15:01:19;-0.40;99.90
16814;DHT22;8524;57.650;11.926;2023-12-07T15:03:46;-0.40;99.90
16814;DHT22;8524;57.650;11.926;2023-12-07T15:06:13;-0.50;99.90
16814;DHT22;8524;57.650;11.926;2023-12-07T15:08:40;-0.50;99.90
16814;DHT22;8524;57.650;11.926;2023-12-07T15:11:07;-0.50;99.90
16814;DHT22;8524;57.650;11.926;2023-12-07T15:13:36;-0.50;99.90
16814;DHT22;8524;57.650;11.926;2023-12-07T15:16:04;-0.50;99.90
16814;DHT22;8524;57.650;11.926;2023-12-07T15:18:31;-0.60;99.90
16814;DHT22;8524;57.650;11.926;2023-12-07T15:21:00;-0.60;99.90
16814;DHT22;8524;57.650;11.926;2023-12-07T15:23:27;-0.50;99.90
16814;DHT22;8524;57.650;11.926;2023-12-07T15:25:54;-0.50;99.90
16814;DHT22;8524;57.650;11.926;2023-12-07T15:28:21;-0.50;99.90
16814;DHT22;8524;57.650;11.926;2023-12-07T15:30:50;-0.40;99.90
16814;DHT22;8524;57.650;11.926;2023-12-07T15:33:17;-0.40;99.90
16814;DHT22;8524;57.650;11.926;2023-12-07T15:35:44;-0.40;99.90
16814;DHT22;8524;57.650;11.926;2023-12-07T15:38:11;-0.40;99.90